sensor_id;sensor_type;location;lat;lon;timestamp;temperature;humidity
68924;DHT22;55961;52.156;20.942;2023-05-18T00:01:15;9.70;69.40
68924;DHT22;55961;52.156;20.942;2023-05-18T00:03:41;9.70;68.80
68924;DHT22;55961;52.156;20.942;2023-05-18T00:06:07;9.60;68.80
68924;DHT22;55961;52.156;20.942;2023-05-18T00:08:35;9.60;69.00
68924;DHT22;55961;52.156;20.942;2023-05-18T00:11:03;9.60;69.20
68924;DHT22;55961;52.156;20.942;2023-05-18T00:13:30;9.60;69.30
68924;DHT22;55961;52.156;20.942;2023-05-18T00:15:56;9.60;69.30
68924;DHT22;55961;52.156;20.942;2023-05-18T00:18:22;9.50;69.50
68924;DHT22;55961;52.156;20.942;2023-05-18T00:20:51;9.50;69.60
68924;DHT22;55961;52.156;20.942;2023-05-18T00:23:25;9.50;69.60
68924;DHT22;55961;52.156;20.942;2023-05-18T00:26:00;9.50;69.40
68924;DHT22;55961;52.156;20.942;2023-05-18T00:28:28;9.50;69.50
68924;DHT22;55961;52.156;20.942;2023-05-18T00:30:54;9.40;69.40
68924;DHT22;55961;52.156;20.942;2023-05-18T00:33:21;9.40;69.40
68924;DHT22;55961;52.156;20.942;2023-05-18T00:35:47;9.40;69.30
68924;DHT22;55961;52.156;20.942;2023-05-18T00:38:24;9.40;69.30
68924;DHT22;55961;52.156;20.942;2023-05-18T00:40:50;9.40;69.30
68924;DHT22;55961;52.156;20.942;2023-05-18T00:43:16;9.40;69.60
68924;DHT22;55961;52.156;20.942;2023-05-18T00:45:42;9.30;69.90
68924;DHT22;55961;52.156;20.942;2023-05-18T00:48:08;9.30;70.10
68924;DHT22;55961;52.156;20.942;2023-05-18T00:50:34;9.30;70.10
68924;DHT22;55961;52.156;20.942;2023-05-18T00:53:00;9.30;70.00
68924;DHT22;55961;52.156;20.942;2023-05-18T00:55:26;9.20;70.00
68924;DHT22;55961;52.156;20.942;2023-05-18T00:57:54;9.20;69.70
68924;DHT22;55961;52.156;20.942;2023-05-18T01:00:21;9.20;69.60
68924;DHT22;55961;52.156;20.942;2023-05-18T01:02:47;9.20;69.50
68924;DHT22;55961;52.156;20.942;2023-05-18T01:05:15;9.20;69.50
68924;DHT22;55961;52.156;20.942;2023-05-18T01:07:42;9.20;69.80
68924;DHT22;55961;52.156;20.942;2023-05-18T01:10:10;9.20;69.60
68924;DHT22;55961;52.156;20.942;2023-05-18T01:15:22;9.10;69.50
68924;DHT22;55961;52.156;20.942;2023-05-18T01:18:12;9.10;69.20
68924;DHT22;55961;52.156;20.942;2023-05-18T01:20:43;9.10;69.40
68924;DHT22;55961;52.156;20.942;2023-05-18T01:23:15;9.10;69.40
68924;DHT22;55961;52.156;20.942;2023-05-18T01:25:47;9.10;69.70
68924;DHT22;55961;52.156;20.942;2023-05-18T01:28:17;9.10;69.80
68924;DHT22;55961;52.156;20.942;2023-05-18T01:30:45;9.10;69.70
68924;DHT22;55961;52.156;20.942;2023-05-18T01:33:12;9.10;69.50
68924;DHT22;55961;52.156;20.942;2023-05-18T01:35:39;9.10;69.50
68924;DHT22;55961;52.156;20.942;2023-05-18T01:38:21;9.10;69.00
68924;DHT22;55961;52.156;20.942;2023-05-18T01:41:17;9.00;69.00
68924;DHT22;55961;52.156;20.942;2023-05-18T01:48:48;9.10;69.80
68924;DHT22;55961;52.156;20.942;2023-05-18T01:51:19;9.10;69.90
68924;DHT22;55961;52.156;20.942;2023-05-18T01:53:53;9.00;69.70
68924;DHT22;55961;52.156;20.942;2023-05-18T01:56:21;9.00;69.70
68924;DHT22;55961;52.156;20.942;2023-05-18T01:58:47;9.00;70.00
68924;DHT22;55961;52.156;20.942;2023-05-18T02:01:14;9.00;70.00
68924;DHT22;55961;52.156;20.942;2023-05-18T02:03:44;9.00;69.70
68924;DHT22;55961;52.156;20.942;2023-05-18T02:06:10;9.00;70.10
68924;DHT22;55961;52.156;20.942;2023-05-18T02:08:36;9.00;70.60
68924;DHT22;55961;52.156;20.942;2023-05-18T02:11:03;9.00;71.10
68924;DHT22;55961;52.156;20.942;2023-05-18T02:13:29;9.00;71.20
68924;DHT22;55961;52.156;20.942;2023-05-18T02:15:54;8.90;70.80
68924;DHT22;55961;52.156;20.942;2023-05-18T02:18:21;8.90;71.00
68924;DHT22;55961;52.156;20.942;2023-05-18T02:20:47;8.90;71.10
68924;DHT22;55961;52.156;20.942;2023-05-18T02:23:14;8.90;70.90
68924;DHT22;55961;52.156;20.942;2023-05-18T02:25:40;8.90;70.80
68924;DHT22;55961;52.156;20.942;2023-05-18T02:28:09;8.80;70.80
68924;DHT22;55961;52.156;20.942;2023-05-18T02:30:35;8.80;70.90
68924;DHT22;55961;52.156;20.942;2023-05-18T02:33:01;8.80;70.90
68924;DHT22;55961;52.156;20.942;2023-05-18T02:35:28;8.80;71.10
68924;DHT22;55961;52.156;20.942;2023-05-18T02:37:54;8.70;71.20
68924;DHT22;55961;52.156;20.942;2023-05-18T02:40:22;8.70;71.70
68924;DHT22;55961;52.156;20.942;2023-05-18T02:42:48;8.70;71.80
68924;DHT22;55961;52.156;20.942;2023-05-18T02:45:14;8.60;72.00
68924;DHT22;55961;52.156;20.942;2023-05-18T02:47:40;8.60;72.00
68924;DHT22;55961;52.156;20.942;2023-05-18T02:50:08;8.50;72.30
68924;DHT22;55961;52.156;20.942;2023-05-18T02:52:35;8.50;72.60
68924;DHT22;55961;52.156;20.942;2023-05-18T02:55:00;8.50;72.70
68924;DHT22;55961;52.156;20.942;2023-05-18T02:57:26;8.50;72.90
68924;DHT22;55961;52.156;20.942;2023-05-18T02:59:52;8.40;73.10
68924;DHT22;55961;52.156;20.942;2023-05-18T03:02:18;8.40;73.40
68924;DHT22;55961;52.156;20.942;2023-05-18T03:04:47;8.40;73.70
68924;DHT22;55961;52.156;20.942;2023-05-18T03:07:24;8.40;73.90
68924;DHT22;55961;52.156;20.942;2023-05-18T03:09:52;8.30;74.10
68924;DHT22;55961;52.156;20.942;2023-05-18T03:12:18;8.30;74.20
68924;DHT22;55961;52.156;20.942;2023-05-18T03:14:44;8.30;74.30
68924;DHT22;55961;52.156;20.942;2023-05-18T03:17:10;8.30;74.40
68924;DHT22;55961;52.156;20.942;2023-05-18T03:19:36;8.20;74.40
68924;DHT22;55961;52.156;20.942;2023-05-18T03:22:02;8.20;74.80
68924;DHT22;55961;52.156;20.942;2023-05-18T03:24:30;8.20;74.70
68924;DHT22;55961;52.156;20.942;2023-05-18T03:27:06;8.20;74.80
68924;DHT22;55961;52.156;20.942;2023-05-18T03:29:32;8.20;75.00
68924;DHT22;55961;52.156;20.942;2023-05-18T03:31:59;8.20;75.20
68924;DHT22;55961;52.156;20.942;2023-05-18T03:34:25;8.20;75.20
68924;DHT22;55961;52.156;20.942;2023-05-18T03:36:51;8.20;75.40
68924;DHT22;55961;52.156;20.942;2023-05-18T03:39:19;8.10;75.30
68924;DHT22;55961;52.156;20.942;2023-05-18T03:41:46;8.10;75.50
68924;DHT22;55961;52.156;20.942;2023-05-18T03:44:11;8.10;75.50
68924;DHT22;55961;52.156;20.942;2023-05-18T03:46:38;8.10;75.50
68924;DHT22;55961;52.156;20.942;2023-05-18T03:49:03;8.20;75.50
68924;DHT22;55961;52.156;20.942;2023-05-18T03:51:31;8.20;75.70
68924;DHT22;55961;52.156;20.942;2023-05-18T03:53:57;8.10;75.80
68924;DHT22;55961;52.156;20.942;2023-05-18T03:56:23;8.20;75.70
68924;DHT22;55961;52.156;20.942;2023-05-18T03:58:49;8.20;75.80
68924;DHT22;55961;52.156;20.942;2023-05-18T04:01:16;8.20;75.80
68924;DHT22;55961;52.156;20.942;2023-05-18T04:03:44;8.20;75.60
68924;DHT22;55961;52.156;20.942;2023-05-18T04:06:10;8.20;75.30
68924;DHT22;55961;52.156;20.942;2023-05-18T04:08:36;8.20;75.20
68924;DHT22;55961;52.156;20.942;2023-05-18T04:11:02;8.20;75.20
68924;DHT22;55961;52.156;20.942;2023-05-18T04:13:28;8.20;75.10
68924;DHT22;55961;52.156;20.942;2023-05-18T04:15:54;8.20;74.70
68924;DHT22;55961;52.156;20.942;2023-05-18T04:18:22;8.20;74.20
68924;DHT22;55961;52.156;20.942;2023-05-18T04:20:48;8.30;74.20
68924;DHT22;55961;52.156;20.942;2023-05-18T04:23:15;8.30;74.00
68924;DHT22;55961;52.156;20.942;2023-05-18T04:25:41;8.30;73.90
68924;DHT22;55961;52.156;20.942;2023-05-18T04:28:08;8.30;73.70
68924;DHT22;55961;52.156;20.942;2023-05-18T04:30:35;8.30;73.80
68924;DHT22;55961;52.156;20.942;2023-05-18T04:33:02;8.30;73.70
68924;DHT22;55961;52.156;20.942;2023-05-18T04:35:28;8.40;73.80
68924;DHT22;55961;52.156;20.942;2023-05-18T04:37:56;8.40;73.50
68924;DHT22;55961;52.156;20.942;2023-05-18T04:40:22;8.40;73.40
68924;DHT22;55961;52.156;20.942;2023-05-18T04:42:50;8.40;73.20
68924;DHT22;55961;52.156;20.942;2023-05-18T04:45:16;8.50;73.40
68924;DHT22;55961;52.156;20.942;2023-05-18T04:47:45;8.50;73.70
68924;DHT22;55961;52.156;20.942;2023-05-18T04:50:15;8.50;73.30
68924;DHT22;55961;52.156;20.942;2023-05-18T04:52:42;8.60;73.20
68924;DHT22;55961;52.156;20.942;2023-05-18T04:55:20;8.60;73.10
68924;DHT22;55961;52.156;20.942;2023-05-18T04:57:53;8.60;72.90
68924;DHT22;55961;52.156;20.942;2023-05-18T05:00:23;8.70;72.70
68924;DHT22;55961;52.156;20.942;2023-05-18T05:02:50;8.70;72.40
68924;DHT22;55961;52.156;20.942;2023-05-18T05:05:17;8.70;72.20
68924;DHT22;55961;52.156;20.942;2023-05-18T05:07:43;8.80;72.10
68924;DHT22;55961;52.156;20.942;2023-05-18T05:10:10;8.80;72.40
68924;DHT22;55961;52.156;20.942;2023-05-18T05:12:39;8.90;72.40
68924;DHT22;55961;52.156;20.942;2023-05-18T05:15:06;8.90;72.40
68924;DHT22;55961;52.156;20.942;2023-05-18T05:17:32;8.90;72.20
68924;DHT22;55961;52.156;20.942;2023-05-18T05:19:58;9.00;72.70
68924;DHT22;55961;52.156;20.942;2023-05-18T05:22:24;9.00;72.60
68924;DHT22;55961;52.156;20.942;2023-05-18T05:24:50;9.10;72.80
68924;DHT22;55961;52.156;20.942;2023-05-18T05:27:16;9.10;72.40
68924;DHT22;55961;52.156;20.942;2023-05-18T05:29:45;9.10;72.30
68924;DHT22;55961;52.156;20.942;2023-05-18T05:32:12;9.20;72.20
68924;DHT22;55961;52.156;20.942;2023-05-18T05:34:38;9.20;72.10
68924;DHT22;55961;52.156;20.942;2023-05-18T05:37:04;9.30;72.00
68924;DHT22;55961;52.156;20.942;2023-05-18T05:39:30;9.30;71.90
68924;DHT22;55961;52.156;20.942;2023-05-18T05:41:56;9.30;71.50
68924;DHT22;55961;52.156;20.942;2023-05-18T05:44:22;9.40;71.50
68924;DHT22;55961;52.156;20.942;2023-05-18T05:46:48;9.40;71.80
68924;DHT22;55961;52.156;20.942;2023-05-18T05:49:14;9.50;71.70
68924;DHT22;55961;52.156;20.942;2023-05-18T05:51:40;9.50;71.40
68924;DHT22;55961;52.156;20.942;2023-05-18T05:54:06;9.50;70.50
68924;DHT22;55961;52.156;20.942;2023-05-18T05:56:32;9.60;70.30
68924;DHT22;55961;52.156;20.942;2023-05-18T05:58:58;9.60;70.50
68924;DHT22;55961;52.156;20.942;2023-05-18T06:01:24;9.60;70.80
68924;DHT22;55961;52.156;20.942;2023-05-18T06:03:50;9.70;71.30
68924;DHT22;55961;52.156;20.942;2023-05-18T06:06:16;9.70;70.70
68924;DHT22;55961;52.156;20.942;2023-05-18T06:08:42;9.80;70.60
68924;DHT22;55961;52.156;20.942;2023-05-18T06:11:08;9.90;70.40
68924;DHT22;55961;52.156;20.942;2023-05-18T06:13:35;10.00;70.20
68924;DHT22;55961;52.156;20.942;2023-05-18T06:16:01;10.00;70.20
68924;DHT22;55961;52.156;20.942;2023-05-18T06:18:27;10.10;70.10
68924;DHT22;55961;52.156;20.942;2023-05-18T06:20:52;10.20;69.90
68924;DHT22;55961;52.156;20.942;2023-05-18T06:23:18;10.30;69.30
68924;DHT22;55961;52.156;20.942;2023-05-18T06:25:50;10.40;68.20
68924;DHT22;55961;52.156;20.942;2023-05-18T06:28:16;10.40;68.00
68924;DHT22;55961;52.156;20.942;2023-05-18T06:30:42;10.50;67.70
68924;DHT22;55961;52.156;20.942;2023-05-18T06:33:08;10.60;67.90
68924;DHT22;55961;52.156;20.942;2023-05-18T06:35:34;10.70;67.40
68924;DHT22;55961;52.156;20.942;2023-05-18T06:38:01;10.70;67.20
68924;DHT22;55961;52.156;20.942;2023-05-18T06:40:27;10.80;67.30
68924;DHT22;55961;52.156;20.942;2023-05-18T06:42:53;10.90;66.70
68924;DHT22;55961;52.156;20.942;2023-05-18T06:45:19;11.00;66.70
68924;DHT22;55961;52.156;20.942;2023-05-18T06:47:45;11.00;66.70
68924;DHT22;55961;52.156;20.942;2023-05-18T06:50:11;11.10;66.80
68924;DHT22;55961;52.156;20.942;2023-05-18T06:52:37;11.20;66.40
68924;DHT22;55961;52.156;20.942;2023-05-18T06:55:03;11.30;65.50
68924;DHT22;55961;52.156;20.942;2023-05-18T06:57:30;11.30;64.90
68924;DHT22;55961;52.156;20.942;2023-05-18T06:59:56;11.40;64.50
68924;DHT22;55961;52.156;20.942;2023-05-18T07:02:22;11.50;63.80
68924;DHT22;55961;52.156;20.942;2023-05-18T07:04:48;11.50;63.80
68924;DHT22;55961;52.156;20.942;2023-05-18T07:07:15;11.60;63.90
68924;DHT22;55961;52.156;20.942;2023-05-18T07:09:43;11.70;63.50
68924;DHT22;55961;52.156;20.942;2023-05-18T07:12:11;11.70;63.70
68924;DHT22;55961;52.156;20.942;2023-05-18T07:14:37;11.80;62.30
68924;DHT22;55961;52.156;20.942;2023-05-18T07:17:03;11.80;61.70
68924;DHT22;55961;52.156;20.942;2023-05-18T07:19:29;11.90;61.60
68924;DHT22;55961;52.156;20.942;2023-05-18T07:21:55;12.00;61.40
68924;DHT22;55961;52.156;20.942;2023-05-18T07:24:21;12.00;62.20
68924;DHT22;55961;52.156;20.942;2023-05-18T07:26:47;12.10;62.20
68924;DHT22;55961;52.156;20.942;2023-05-18T07:29:13;12.20;62.30
68924;DHT22;55961;52.156;20.942;2023-05-18T07:31:39;12.30;62.30
68924;DHT22;55961;52.156;20.942;2023-05-18T07:34:06;12.40;61.80
68924;DHT22;55961;52.156;20.942;2023-05-18T07:36:33;12.40;60.20
68924;DHT22;55961;52.156;20.942;2023-05-18T07:38:59;12.50;60.80
68924;DHT22;55961;52.156;20.942;2023-05-18T07:41:26;12.60;60.40
68924;DHT22;55961;52.156;20.942;2023-05-18T07:43:53;12.70;60.40
68924;DHT22;55961;52.156;20.942;2023-05-18T07:46:19;12.80;61.20
68924;DHT22;55961;52.156;20.942;2023-05-18T07:48:45;12.80;60.30
68924;DHT22;55961;52.156;20.942;2023-05-18T07:51:11;13.00;60.20
68924;DHT22;55961;52.156;20.942;2023-05-18T07:53:38;13.00;59.80
68924;DHT22;55961;52.156;20.942;2023-05-18T07:56:05;13.20;59.60
68924;DHT22;55961;52.156;20.942;2023-05-18T07:58:35;13.20;59.30
68924;DHT22;55961;52.156;20.942;2023-05-18T08:01:02;13.30;58.80
68924;DHT22;55961;52.156;20.942;2023-05-18T08:03:28;13.40;58.60
68924;DHT22;55961;52.156;20.942;2023-05-18T08:05:54;13.50;59.00
68924;DHT22;55961;52.156;20.942;2023-05-18T08:08:20;13.60;59.20
68924;DHT22;55961;52.156;20.942;2023-05-18T08:10:46;13.70;58.80
68924;DHT22;55961;52.156;20.942;2023-05-18T08:13:12;13.80;58.60
68924;DHT22;55961;52.156;20.942;2023-05-18T08:15:38;13.80;58.00
68924;DHT22;55961;52.156;20.942;2023-05-18T08:18:07;13.90;58.00
68924;DHT22;55961;52.156;20.942;2023-05-18T08:20:33;14.00;58.00
68924;DHT22;55961;52.156;20.942;2023-05-18T08:22:59;14.10;57.70
68924;DHT22;55961;52.156;20.942;2023-05-18T08:25:25;14.20;57.50
68924;DHT22;55961;52.156;20.942;2023-05-18T08:27:51;14.30;57.10
68924;DHT22;55961;52.156;20.942;2023-05-18T08:30:17;14.30;57.20
68924;DHT22;55961;52.156;20.942;2023-05-18T08:32:46;14.40;57.00
68924;DHT22;55961;52.156;20.942;2023-05-18T08:35:13;14.50;56.10
68924;DHT22;55961;52.156;20.942;2023-05-18T08:37:38;14.60;56.10
68924;DHT22;55961;52.156;20.942;2023-05-18T08:40:05;14.60;56.10
68924;DHT22;55961;52.156;20.942;2023-05-18T08:48:15;14.80;54.90
68924;DHT22;55961;52.156;20.942;2023-05-18T08:50:41;14.80;55.30
68924;DHT22;55961;52.156;20.942;2023-05-18T08:53:09;14.90;54.60
68924;DHT22;55961;52.156;20.942;2023-05-18T08:55:37;15.00;54.50
68924;DHT22;55961;52.156;20.942;2023-05-18T08:58:06;15.00;54.90
68924;DHT22;55961;52.156;20.942;2023-05-18T09:00:33;15.10;54.80
68924;DHT22;55961;52.156;20.942;2023-05-18T09:03:02;15.10;54.50
68924;DHT22;55961;52.156;20.942;2023-05-18T09:05:29;15.20;54.60
68924;DHT22;55961;52.156;20.942;2023-05-18T09:07:55;15.20;54.70
68924;DHT22;55961;52.156;20.942;2023-05-18T09:10:23;15.30;53.00
68924;DHT22;55961;52.156;20.942;2023-05-18T09:12:50;15.30;53.20
68924;DHT22;55961;52.156;20.942;2023-05-18T09:15:17;15.40;53.40
68924;DHT22;55961;52.156;20.942;2023-05-18T09:17:43;15.40;53.10
68924;DHT22;55961;52.156;20.942;2023-05-18T09:20:09;15.50;53.10
68924;DHT22;55961;52.156;20.942;2023-05-18T09:22:35;15.50;53.00
68924;DHT22;55961;52.156;20.942;2023-05-18T09:25:02;15.60;53.30
68924;DHT22;55961;52.156;20.942;2023-05-18T09:27:29;15.60;53.60
68924;DHT22;55961;52.156;20.942;2023-05-18T09:29:56;15.70;53.20
68924;DHT22;55961;52.156;20.942;2023-05-18T09:32:23;15.80;53.30
68924;DHT22;55961;52.156;20.942;2023-05-18T09:34:51;15.80;52.50
68924;DHT22;55961;52.156;20.942;2023-05-18T09:37:18;15.90;53.40
68924;DHT22;55961;52.156;20.942;2023-05-18T09:39:56;16.00;52.70
68924;DHT22;55961;52.156;20.942;2023-05-18T09:42:28;16.10;52.80
68924;DHT22;55961;52.156;20.942;2023-05-18T09:44:57;16.20;51.70
68924;DHT22;55961;52.156;20.942;2023-05-18T09:47:22;16.30;53.10
68924;DHT22;55961;52.156;20.942;2023-05-18T09:49:48;16.30;52.00
68924;DHT22;55961;52.156;20.942;2023-05-18T09:52:14;16.40;52.00
68924;DHT22;55961;52.156;20.942;2023-05-18T09:54:41;16.40;52.00
68924;DHT22;55961;52.156;20.942;2023-05-18T09:57:06;16.50;51.00
68924;DHT22;55961;52.156;20.942;2023-05-18T09:59:35;16.50;51.10
68924;DHT22;55961;52.156;20.942;2023-05-18T10:02:03;16.60;50.40
68924;DHT22;55961;52.156;20.942;2023-05-18T10:04:38;16.60;51.50
68924;DHT22;55961;52.156;20.942;2023-05-18T10:07:13;16.70;51.70
68924;DHT22;55961;52.156;20.942;2023-05-18T10:09:41;16.70;51.30
68924;DHT22;55961;52.156;20.942;2023-05-18T10:12:11;16.80;51.10
68924;DHT22;55961;52.156;20.942;2023-05-18T10:14:40;16.80;51.00
68924;DHT22;55961;52.156;20.942;2023-05-18T10:17:06;16.90;51.00
68924;DHT22;55961;52.156;20.942;2023-05-18T10:19:34;16.90;50.80
68924;DHT22;55961;52.156;20.942;2023-05-18T10:22:04;17.00;51.10
68924;DHT22;55961;52.156;20.942;2023-05-18T10:24:34;17.00;51.60
68924;DHT22;55961;52.156;20.942;2023-05-18T10:27:01;17.00;52.30
68924;DHT22;55961;52.156;20.942;2023-05-18T10:29:31;17.10;51.50
68924;DHT22;55961;52.156;20.942;2023-05-18T10:31:58;17.10;51.70
68924;DHT22;55961;52.156;20.942;2023-05-18T10:34:33;17.20;51.40
68924;DHT22;55961;52.156;20.942;2023-05-18T10:37:01;17.30;51.50
68924;DHT22;55961;52.156;20.942;2023-05-18T10:39:30;17.40;51.50
68924;DHT22;55961;52.156;20.942;2023-05-18T10:41:59;17.40;51.70
68924;DHT22;55961;52.156;20.942;2023-05-18T10:44:27;17.50;51.10
68924;DHT22;55961;52.156;20.942;2023-05-18T10:46:53;17.60;50.60
68924;DHT22;55961;52.156;20.942;2023-05-18T10:49:25;17.70;50.00
68924;DHT22;55961;52.156;20.942;2023-05-18T10:51:52;17.70;50.50
68924;DHT22;55961;52.156;20.942;2023-05-18T10:54:20;17.70;49.70
68924;DHT22;55961;52.156;20.942;2023-05-18T10:56:51;17.80;50.10
68924;DHT22;55961;52.156;20.942;2023-05-18T10:59:17;17.90;50.00
68924;DHT22;55961;52.156;20.942;2023-05-18T11:01:44;17.90;50.00
68924;DHT22;55961;52.156;20.942;2023-05-18T11:04:12;18.00;49.90
68924;DHT22;55961;52.156;20.942;2023-05-18T11:06:38;18.00;48.50
68924;DHT22;55961;52.156;20.942;2023-05-18T11:09:05;18.10;48.60
68924;DHT22;55961;52.156;20.942;2023-05-18T11:11:50;18.20;49.00
68924;DHT22;55961;52.156;20.942;2023-05-18T11:14:30;18.20;48.30
68924;DHT22;55961;52.156;20.942;2023-05-18T11:17:18;18.30;48.80
68924;DHT22;55961;52.156;20.942;2023-05-18T11:28:00;18.70;48.30
68924;DHT22;55961;52.156;20.942;2023-05-18T11:30:29;18.70;48.30
68924;DHT22;55961;52.156;20.942;2023-05-18T11:36:10;18.90;47.30
68924;DHT22;55961;52.156;20.942;2023-05-18T11:39:02;19.00;46.90
68924;DHT22;55961;52.156;20.942;2023-05-18T11:46:32;19.10;46.70
68924;DHT22;55961;52.156;20.942;2023-05-18T11:49:06;19.20;45.90
68924;DHT22;55961;52.156;20.942;2023-05-18T11:51:33;19.30;46.70
68924;DHT22;55961;52.156;20.942;2023-05-18T11:53:59;19.30;46.40
68924;DHT22;55961;52.156;20.942;2023-05-18T11:56:26;19.40;45.50
68924;DHT22;55961;52.156;20.942;2023-05-18T11:59:35;19.40;45.80
68924;DHT22;55961;52.156;20.942;2023-05-18T12:02:02;19.40;45.10
68924;DHT22;55961;52.156;20.942;2023-05-18T12:04:29;19.40;45.40
68924;DHT22;55961;52.156;20.942;2023-05-18T12:06:56;19.40;45.60
68924;DHT22;55961;52.156;20.942;2023-05-18T12:09:23;19.50;45.70
68924;DHT22;55961;52.156;20.942;2023-05-18T12:11:50;19.50;45.70
68924;DHT22;55961;52.156;20.942;2023-05-18T12:14:19;19.60;47.10
68924;DHT22;55961;52.156;20.942;2023-05-18T12:16:47;19.60;45.70
68924;DHT22;55961;52.156;20.942;2023-05-18T12:19:13;19.60;45.00
68924;DHT22;55961;52.156;20.942;2023-05-18T12:21:39;19.70;45.40
68924;DHT22;55961;52.156;20.942;2023-05-18T12:24:05;19.70;45.70
68924;DHT22;55961;52.156;20.942;2023-05-18T12:26:32;19.80;45.80
68924;DHT22;55961;52.156;20.942;2023-05-18T12:29:01;19.80;46.30
68924;DHT22;55961;52.156;20.942;2023-05-18T12:31:27;19.80;45.00
68924;DHT22;55961;52.156;20.942;2023-05-18T12:33:53;19.80;44.80
68924;DHT22;55961;52.156;20.942;2023-05-18T12:36:20;19.80;45.10
68924;DHT22;55961;52.156;20.942;2023-05-18T12:38:52;19.80;45.60
68924;DHT22;55961;52.156;20.942;2023-05-18T12:41:23;19.90;46.50
68924;DHT22;55961;52.156;20.942;2023-05-18T12:43:49;19.90;45.40
68924;DHT22;55961;52.156;20.942;2023-05-18T12:46:16;19.90;45.10
68924;DHT22;55961;52.156;20.942;2023-05-18T12:48:45;19.90;45.40
68924;DHT22;55961;52.156;20.942;2023-05-18T12:51:18;19.90;45.10
68924;DHT22;55961;52.156;20.942;2023-05-18T12:53:44;19.90;45.40
68924;DHT22;55961;52.156;20.942;2023-05-18T12:56:10;19.90;45.10
68924;DHT22;55961;52.156;20.942;2023-05-18T12:58:37;19.90;45.40
68924;DHT22;55961;52.156;20.942;2023-05-18T13:01:09;19.90;45.30
68924;DHT22;55961;52.156;20.942;2023-05-18T13:03:39;19.90;44.80
68924;DHT22;55961;52.156;20.942;2023-05-18T13:06:07;19.80;45.30
68924;DHT22;55961;52.156;20.942;2023-05-18T13:08:34;19.70;45.60
68924;DHT22;55961;52.156;20.942;2023-05-18T13:13:27;19.60;45.80
68924;DHT22;55961;52.156;20.942;2023-05-18T13:15:53;19.60;46.40
68924;DHT22;55961;52.156;20.942;2023-05-18T13:18:19;19.50;46.70
68924;DHT22;55961;52.156;20.942;2023-05-18T13:20:49;19.50;46.60
68924;DHT22;55961;52.156;20.942;2023-05-18T13:23:24;19.50;46.70
68924;DHT22;55961;52.156;20.942;2023-05-18T13:25:51;19.50;47.10
68924;DHT22;55961;52.156;20.942;2023-05-18T13:28:19;19.40;46.20
68924;DHT22;55961;52.156;20.942;2023-05-18T13:30:46;19.40;46.50
68924;DHT22;55961;52.156;20.942;2023-05-18T13:33:14;19.30;46.40
68924;DHT22;55961;52.156;20.942;2023-05-18T13:35:42;19.20;46.80
68924;DHT22;55961;52.156;20.942;2023-05-18T13:38:12;19.20;46.90
68924;DHT22;55961;52.156;20.942;2023-05-18T13:40:39;19.00;47.00
68924;DHT22;55961;52.156;20.942;2023-05-18T13:43:05;18.90;47.80
68924;DHT22;55961;52.156;20.942;2023-05-18T13:45:33;18.90;48.00
68924;DHT22;55961;52.156;20.942;2023-05-18T13:47:59;18.80;47.90
68924;DHT22;55961;52.156;20.942;2023-05-18T13:50:26;18.70;48.40
68924;DHT22;55961;52.156;20.942;2023-05-18T13:52:52;18.70;48.50
68924;DHT22;55961;52.156;20.942;2023-05-18T13:55:18;18.60;47.80
68924;DHT22;55961;52.156;20.942;2023-05-18T13:57:44;18.50;48.50
68924;DHT22;55961;52.156;20.942;2023-05-18T14:00:12;18.50;48.70
68924;DHT22;55961;52.156;20.942;2023-05-18T14:02:39;18.50;48.90
68924;DHT22;55961;52.156;20.942;2023-05-18T14:05:06;18.50;49.20
68924;DHT22;55961;52.156;20.942;2023-05-18T14:07:39;18.40;49.50
68924;DHT22;55961;52.156;20.942;2023-05-18T14:10:07;18.40;49.60
68924;DHT22;55961;52.156;20.942;2023-05-18T14:12:34;18.40;49.50
68924;DHT22;55961;52.156;20.942;2023-05-18T14:15:00;18.30;49.40
68924;DHT22;55961;52.156;20.942;2023-05-18T14:17:26;18.30;49.40
68924;DHT22;55961;52.156;20.942;2023-05-18T14:19:55;18.30;49.30
68924;DHT22;55961;52.156;20.942;2023-05-18T14:22:21;18.20;49.70
68924;DHT22;55961;52.156;20.942;2023-05-18T14:24:47;18.20;49.10
68924;DHT22;55961;52.156;20.942;2023-05-18T14:27:14;18.10;49.40
68924;DHT22;55961;52.156;20.942;2023-05-18T14:29:40;18.10;49.40
68924;DHT22;55961;52.156;20.942;2023-05-18T14:32:06;18.10;50.00
68924;DHT22;55961;52.156;20.942;2023-05-18T14:34:32;18.00;50.00
68924;DHT22;55961;52.156;20.942;2023-05-18T14:36:58;18.00;49.80
68924;DHT22;55961;52.156;20.942;2023-05-18T14:39:24;17.90;49.90
68924;DHT22;55961;52.156;20.942;2023-05-18T14:41:50;17.90;49.80
68924;DHT22;55961;52.156;20.942;2023-05-18T14:44:16;17.80;49.80
68924;DHT22;55961;52.156;20.942;2023-05-18T14:46:42;17.80;50.50
68924;DHT22;55961;52.156;20.942;2023-05-18T14:49:08;17.70;50.40
68924;DHT22;55961;52.156;20.942;2023-05-18T14:51:34;17.70;50.40
68924;DHT22;55961;52.156;20.942;2023-05-18T14:54:00;17.60;50.90
68924;DHT22;55961;52.156;20.942;2023-05-18T14:56:26;17.60;50.90
68924;DHT22;55961;52.156;20.942;2023-05-18T14:58:52;17.60;50.90
68924;DHT22;55961;52.156;20.942;2023-05-18T15:01:18;17.50;50.80
68924;DHT22;55961;52.156;20.942;2023-05-18T15:03:44;17.50;50.70
68924;DHT22;55961;52.156;20.942;2023-05-18T15:06:10;17.40;50.50
68924;DHT22;55961;52.156;20.942;2023-05-18T15:08:36;17.40;50.60
68924;DHT22;55961;52.156;20.942;2023-05-18T15:11:02;17.30;50.60
68924;DHT22;55961;52.156;20.942;2023-05-18T15:13:28;17.30;50.80
68924;DHT22;55961;52.156;20.942;2023-05-18T15:15:54;17.30;51.20
68924;DHT22;55961;52.156;20.942;2023-05-18T15:18:20;17.20;51.10
68924;DHT22;55961;52.156;20.942;2023-05-18T15:20:46;17.20;51.70
68924;DHT22;55961;52.156;20.942;2023-05-18T15:23:12;17.20;51.20
68924;DHT22;55961;52.156;20.942;2023-05-18T15:25:39;17.10;51.50
68924;DHT22;55961;52.156;20.942;2023-05-18T15:28:05;17.10;51.70
68924;DHT22;55961;52.156;20.942;2023-05-18T15:30:32;17.10;51.20
68924;DHT22;55961;52.156;20.942;2023-05-18T15:32:58;17.10;51.60
68924;DHT22;55961;52.156;20.942;2023-05-18T15:35:27;17.00;51.70
68924;DHT22;55961;52.156;20.942;2023-05-18T15:37:54;17.00;51.40
68924;DHT22;55961;52.156;20.942;2023-05-18T15:40:20;16.90;51.50
68924;DHT22;55961;52.156;20.942;2023-05-18T15:42:46;16.90;51.70
68924;DHT22;55961;52.156;20.942;2023-05-18T15:45:11;16.80;51.70
68924;DHT22;55961;52.156;20.942;2023-05-18T15:47:38;16.80;52.40
68924;DHT22;55961;52.156;20.942;2023-05-18T15:50:04;16.80;51.70
68924;DHT22;55961;52.156;20.942;2023-05-18T15:52:31;16.80;51.60
68924;DHT22;55961;52.156;20.942;2023-05-18T15:54:57;16.70;51.80
68924;DHT22;55961;52.156;20.942;2023-05-18T15:57:23;16.70;51.70